createdAt,value
2023-03-16T00:04:12.175Z,100894.09
2023-03-16T00:09:14.997Z,100890.41
2023-03-16T00:14:19.077Z,100884.09
2023-03-16T00:19:22.861Z,100881.41
2023-03-16T00:24:25.694Z,100885.00
2023-03-16T00:29:29.795Z,100886.19
2023-03-16T00:34:34.608Z,100896.03
2023-03-16T00:39:37.346Z,100903.88
2023-03-16T00:44:42.397Z,100897.19
2023-03-16T00:49:45.557Z,100890.94
2023-03-16T00:54:49.062Z,100882.09
2023-03-16T00:59:53.618Z,100873.31
2023-03-16T01:04:57.037Z,100871.63
2023-03-16T01:10:01.656Z,100853.13
2023-03-16T01:15:07.228Z,100844.75
2023-03-16T01:20:14.386Z,100856.22
2023-03-16T01:25:18.319Z,100848.34
2023-03-16T01:30:22.483Z,100851.34
2023-03-16T01:35:25.592Z,100849.56
2023-03-16T01:40:28.846Z,100849.44
2023-03-16T01:46:14.195Z,100845.09
2023-03-16T01:51:24.220Z,100842.69
2023-03-16T01:56:30.849Z,100826.97
2023-03-16T02:01:36.089Z,100817.59
2023-03-16T02:06:39.515Z,100806.31
2023-03-16T02:11:42.920Z,100799.72
2023-03-16T02:16:50.665Z,100790.97
2023-03-16T02:21:59.666Z,100785.66
2023-03-16T02:27:05.535Z,100777.31
2023-03-16T02:32:13.943Z,100782.59
2023-03-16T02:37:17.049Z,100780.22
2023-03-16T02:42:22.826Z,100771.16
2023-03-16T02:47:35.063Z,100757.38
2023-03-16T02:52:39.243Z,100762.44
2023-03-16T02:57:42.264Z,100762.00
2023-03-16T03:02:52.464Z,100755.91
2023-03-16T03:07:55.463Z,100754.72
2023-03-16T03:12:58.775Z,100752.94
2023-03-16T03:18:04.027Z,100740.56
2023-03-16T03:23:08.016Z,100744.63
2023-03-16T03:28:11.415Z,100748.94
2023-03-16T03:33:15.738Z,100755.88
2023-03-16T03:38:18.593Z,100770.13
2023-03-16T03:43:22.215Z,100763.94
2023-03-16T03:48:28.534Z,100754.66
2023-03-16T03:53:33.076Z,100752.72
2023-03-16T03:58:56.067Z,100744.97
2023-03-16T04:04:18.873Z,100742.28
2023-03-16T04:09:21.696Z,100727.50
2023-03-16T04:14:24.954Z,100733.00
2023-03-16T04:19:29.382Z,100737.06
2023-03-16T04:24:34.482Z,100740.88
2023-03-16T04:29:38.715Z,100731.94
2023-03-16T04:34:43.751Z,100741.50
2023-03-16T04:39:48.888Z,100735.22
2023-03-16T04:44:51.836Z,100733.50
2023-03-16T04:49:58.668Z,100742.03
2023-03-16T04:55:01.679Z,100746.38
2023-03-16T05:00:11.705Z,100740.88
2023-03-16T05:05:23.124Z,100734.44
2023-03-16T05:10:26.519Z,100726.91
2023-03-16T05:15:29.507Z,100724.28
2023-03-16T05:20:42.167Z,100719.47
2023-03-16T05:25:47.112Z,100718.88
2023-03-16T05:30:53.030Z,100705.06
2023-03-16T05:36:03.021Z,100714.72
2023-03-16T05:41:06.847Z,100713.41
2023-03-16T05:46:30.156Z,100704.91
2023-03-16T05:51:35.379Z,100692.97
2023-03-16T05:56:40.914Z,100689.38
2023-03-16T06:01:43.802Z,100692.94
2023-03-16T06:06:48.942Z,100690.66
2023-03-16T06:12:01.440Z,100696.09
2023-03-16T06:17:05.548Z,100690.34
2023-03-16T06:22:10.968Z,100681.88
2023-03-16T06:27:14.949Z,100672.88
2023-03-16T06:32:33.614Z,100675.97
2023-03-16T06:37:38.059Z,100674.91
2023-03-16T06:42:55.142Z,100674.50
2023-03-16T06:47:58.075Z,100675.94
2023-03-16T06:53:02.656Z,100684.03
2023-03-16T06:58:07.948Z,100684.69
2023-03-16T07:03:10.980Z,100690.31
2023-03-16T07:08:18.176Z,100699.31
2023-03-16T07:13:21.188Z,100694.44
2023-03-16T07:18:25.963Z,100696.59
2023-03-16T07:23:30.820Z,100693.09
2023-03-16T07:28:39.462Z,100698.31
2023-03-16T07:33:43.133Z,100698.13
2023-03-16T07:38:51.688Z,100698.28
2023-03-16T07:43:54.875Z,100716.81
2023-03-16T07:49:00.273Z,100705.94
2023-03-16T07:54:05.148Z,100705.53
2023-03-16T07:59:10.656Z,100712.50
2023-03-16T08:04:13.561Z,100711.06
2023-03-16T08:09:17.866Z,100707.03
2023-03-16T08:14:20.851Z,100710.97
2023-03-16T08:19:42.664Z,100695.41
2023-03-16T08:24:48.997Z,100693.06
2023-03-16T08:29:53.869Z,100687.16
2023-03-16T08:35:00.470Z,100690.38
2023-03-16T08:40:06.391Z,100695.88
2023-03-16T08:45:13.778Z,100702.53
2023-03-16T08:50:19.617Z,100703.84
2023-03-16T08:55:24.475Z,100687.41
2023-03-16T09:00:28.733Z,100686.22
2023-03-16T09:05:32.646Z,100693.94
2023-03-16T09:10:38.031Z,100690.13
2023-03-16T09:22:52.044Z,100698.13
2023-03-16T09:27:56.185Z,100708.25
2023-03-16T09:32:59.477Z,100685.31
2023-03-16T09:38:06.874Z,100694.16
2023-03-16T09:43:31.379Z,100690.28
2023-03-16T09:48:36.800Z,100682.06
2023-03-16T09:53:40.573Z,100678.66
2023-03-16T09:58:45.689Z,100676.28
2023-03-16T10:04:06.504Z,100667.53
2023-03-16T10:09:25.242Z,100668.25
2023-03-16T10:14:39.008Z,100666.63
2023-03-16T10:19:47.986Z,100663.28
2023-03-16T10:25:02.404Z,100650.66
2023-03-16T10:30:19.659Z,100655.72
2023-03-16T10:35:32.443Z,100653.50
2023-03-16T10:40:38.450Z,100648.56
2023-03-16T10:45:44.257Z,100647.25
2023-03-16T10:50:51.917Z,100643.28
2023-03-16T10:55:59.805Z,100638.44
2023-03-16T11:01:03.931Z,100627.69
2023-03-16T11:06:08.911Z,100627.19
2023-03-16T11:11:15.633Z,100613.78
2023-03-16T11:16:31.964Z,100615.66
2023-03-16T11:21:44.766Z,100594.59
2023-03-16T11:26:53.082Z,100593.25
2023-03-16T11:32:01.015Z,100591.56
2023-03-16T11:37:14.064Z,100592.84
2023-03-16T11:42:29.799Z,100590.22
2023-03-16T11:48:02.335Z,100585.78
2023-03-16T11:53:14.366Z,100596.78
2023-03-16T11:58:31.574Z,100578.69
2023-03-16T12:03:57.026Z,100578.47
2023-03-16T12:09:15.441Z,100584.69
2023-03-16T12:14:24.302Z,100583.34
2023-03-16T12:19:42.516Z,100569.78
2023-03-16T12:24:47.029Z,100557.16
2023-03-16T12:30:01.724Z,100540.53
2023-03-16T12:35:19.463Z,100534.72
2023-03-16T12:40:32.793Z,100531.88
2023-03-16T12:45:41.897Z,100524.97
2023-03-16T12:50:52.051Z,100519.84
2023-03-16T12:55:56.524Z,100513.44
2023-03-16T13:01:01.007Z,100481.69
2023-03-16T13:06:05.624Z,100482.19
2023-03-16T13:11:10.346Z,100479.25
2023-03-16T13:16:27.120Z,100478.13
2023-03-16T13:21:39.435Z,100467.41
2023-03-16T13:26:47.372Z,100456.50
2023-03-16T13:31:51.162Z,100452.81
2023-03-16T13:36:57.980Z,100456.19
2023-03-16T13:42:04.689Z,100446.38
2023-03-16T13:47:08.516Z,100434.88
2023-03-16T13:52:20.784Z,100435.22
2023-03-16T13:57:26.885Z,100426.28
2023-03-16T14:02:30.132Z,100415.69
2023-03-16T14:07:38.734Z,100408.94
2023-03-16T14:12:51.702Z,100392.81
2023-03-16T14:18:16.370Z,100380.78
2023-03-16T14:23:24.475Z,100364.59
2023-03-16T14:28:32.367Z,100347.50
2023-03-16T14:33:37.693Z,100338.97
2023-03-16T14:38:43.679Z,100337.59
2023-03-16T14:43:49.244Z,100329.09
2023-03-16T14:48:53.404Z,100337.50
2023-03-16T14:53:57.554Z,100330.28
2023-03-16T14:59:00.540Z,100320.13
2023-03-16T15:04:03.740Z,100308.06
2023-03-16T15:09:08.737Z,100302.81
2023-03-16T15:14:35.406Z,100289.56
2023-03-16T15:19:38.121Z,100271.81
2023-03-16T15:24:42.588Z,100276.28
2023-03-16T15:29:45.353Z,100268.69
2023-03-16T15:34:48.126Z,100278.13
2023-03-16T15:39:52.346Z,100260.72
2023-03-16T15:44:55.289Z,100247.16
2023-03-16T15:49:58.064Z,100226.44
2023-03-16T15:55:07.678Z,100218.94
2023-03-16T16:00:27.177Z,100215.06
2023-03-16T16:05:30.996Z,100220.84
2023-03-16T16:10:35.682Z,100213.16
2023-03-16T16:15:38.456Z,100206.06
2023-03-16T16:20:41.282Z,100203.16
2023-03-16T16:25:46.491Z,100207.63
2023-03-16T16:30:49.894Z,100207.84
2023-03-16T16:35:52.932Z,100202.97
2023-03-16T16:41:01.345Z,100191.25
2023-03-16T16:46:07.531Z,100182.13
2023-03-16T16:51:18.151Z,100178.06
2023-03-16T16:56:28.604Z,100176.09
2023-03-16T17:01:34.536Z,100168.97
2023-03-16T17:06:37.764Z,100170.63
2023-03-16T17:11:43.386Z,100180.59
2023-03-16T17:16:48.441Z,100170.19
2023-03-16T17:21:52.184Z,100167.34
2023-03-16T17:26:58.741Z,100162.00
2023-03-16T17:32:03.571Z,100165.56
2023-03-16T17:37:08.477Z,100177.06
2023-03-16T17:42:15.858Z,100176.28
2023-03-16T17:47:21.367Z,100157.63
2023-03-16T17:52:26.853Z,100163.69
2023-03-16T17:57:33.220Z,100165.81
2023-03-16T18:02:41.130Z,100170.97
2023-03-16T18:07:43.912Z,100156.66
2023-03-16T18:12:50.642Z,100161.22
2023-03-16T18:17:53.802Z,100152.28
2023-03-16T18:22:57.107Z,100161.66
2023-03-16T18:28:02.621Z,100156.63
2023-03-16T18:33:07.766Z,100166.22
2023-03-16T18:38:18.959Z,100172.19
2023-03-16T18:43:24.521Z,100163.97
2023-03-16T18:48:31.583Z,100164.31
2023-03-16T18:53:34.373Z,100159.28
2023-03-16T18:58:38.481Z,100173.44
2023-03-16T19:03:45.023Z,100175.47
2023-03-16T19:08:47.804Z,100170.75
2023-03-16T19:13:54.666Z,100162.97
2023-03-16T19:18:57.574Z,100168.59
2023-03-16T19:24:04.121Z,100175.13
2023-03-16T19:29:11.293Z,100169.69
2023-03-16T19:34:17.635Z,100150.41
2023-03-16T19:39:21.295Z,100142.22
2023-03-16T19:44:28.277Z,100142.97
2023-03-16T19:49:31.698Z,100137.31
2023-03-16T19:54:35.049Z,100122.16
2023-03-16T19:59:39.389Z,100123.06
2023-03-16T20:04:42.289Z,100119.25
2023-03-16T20:09:45.276Z,100116.97
2023-03-16T20:14:51.203Z,100125.31
2023-03-16T20:19:54.102Z,100122.00
2023-03-16T20:24:57.967Z,100109.63
2023-03-16T20:30:02.818Z,100111.88
2023-03-16T20:35:14.594Z,100114.22
2023-03-16T20:40:18.584Z,100116.31
2023-03-16T20:45:25.739Z,100090.81
2023-03-16T20:50:31.103Z,100087.75
2023-03-16T20:55:34.141Z,100081.41
2023-03-16T21:00:39.928Z,100063.06
2023-03-16T21:05:42.705Z,100065.94
2023-03-16T21:10:47.808Z,100050.91
2023-03-16T21:15:53.022Z,100039.34
2023-03-16T21:20:56.867Z,100044.28
2023-03-16T21:26:03.689Z,100036.91
2023-03-16T21:31:08.401Z,100028.16
2023-03-16T21:36:15.769Z,100027.63
2023-03-16T21:41:18.671Z,100021.31
2023-03-16T21:46:24.624Z,100016.19
2023-03-16T21:51:31.492Z,100015.66
2023-03-16T21:56:34.288Z,99995.91
2023-03-16T22:01:54.406Z,99998.81
2023-03-16T22:07:01.372Z,99994.84
2023-03-16T22:12:04.722Z,99999.78
2023-03-16T22:17:20.160Z,99969.63
2023-03-16T22:22:22.924Z,99960.78
2023-03-16T22:27:26.306Z,99965.47
2023-03-16T22:32:30.519Z,99975.63
2023-03-16T22:37:33.829Z,99967.94
2023-03-16T22:42:38.944Z,99972.97
2023-03-16T22:47:43.106Z,99981.22
2023-03-16T22:52:48.377Z,99961.47
2023-03-16T22:57:54.688Z,99943.88
2023-03-16T23:02:59.223Z,99938.09
2023-03-16T23:08:03.489Z,99922.75
2023-03-16T23:13:15.285Z,99922.53
2023-03-16T23:18:21.957Z,99923.38
2023-03-16T23:23:24.888Z,99918.34
2023-03-16T23:28:27.780Z,99925.50
2023-03-16T23:33:32.019Z,99931.06
2023-03-16T23:38:34.807Z,99932.53
2023-03-16T23:43:37.656Z,99920.19
2023-03-16T23:48:45.867Z,99923.25
2023-03-16T23:53:48.827Z,99918.66
2023-03-16T23:58:52.054Z,99911.97
